sensor_id;sensor_type;location;lat;lon;timestamp;temperature;humidity
53045;DHT22;38930;52.766;6.884;2024-02-16T00:01:32;10.80;99.90
53045;DHT22;38930;52.766;6.884;2024-02-16T00:03:57;10.70;99.90
53045;DHT22;38930;52.766;6.884;2024-02-16T00:06:23;10.80;99.90
53045;DHT22;38930;52.766;6.884;2024-02-16T00:08:48;10.50;99.90
53045;DHT22;38930;52.766;6.884;2024-02-16T00:11:14;10.80;99.90
53045;DHT22;38930;52.766;6.884;2024-02-16T00:13:39;10.80;99.90
53045;DHT22;38930;52.766;6.884;2024-02-16T00:16:05;11.00;99.90
53045;DHT22;38930;52.766;6.884;2024-02-16T00:18:31;10.80;99.90
53045;DHT22;38930;52.766;6.884;2024-02-16T00:20:56;10.80;99.90
53045;DHT22;38930;52.766;6.884;2024-02-16T00:23:22;10.80;99.90
53045;DHT22;38930;52.766;6.884;2024-02-16T00:25:50;10.80;99.90
53045;DHT22;38930;52.766;6.884;2024-02-16T00:28:16;10.80;99.90
53045;DHT22;38930;52.766;6.884;2024-02-16T00:30:41;10.70;99.90
53045;DHT22;38930;52.766;6.884;2024-02-16T00:33:07;10.30;99.90
53045;DHT22;38930;52.766;6.884;2024-02-16T00:35:32;10.70;99.90
53045;DHT22;38930;52.766;6.884;2024-02-16T00:37:59;10.70;99.90
53045;DHT22;38930;52.766;6.884;2024-02-16T00:40:25;10.70;99.90
53045;DHT22;38930;52.766;6.884;2024-02-16T00:42:52;10.70;99.90
53045;DHT22;38930;52.766;6.884;2024-02-16T00:45:17;10.70;99.90
53045;DHT22;38930;52.766;6.884;2024-02-16T00:47:43;10.70;99.90
53045;DHT22;38930;52.766;6.884;2024-02-16T00:50:10;10.70;99.90
53045;DHT22;38930;52.766;6.884;2024-02-16T00:52:36;11.40;99.90
53045;DHT22;38930;52.766;6.884;2024-02-16T00:55:03;10.70;99.90
53045;DHT22;38930;52.766;6.884;2024-02-16T00:57:29;10.70;99.90
53045;DHT22;38930;52.766;6.884;2024-02-16T00:59:55;10.70;99.90
53045;DHT22;38930;52.766;6.884;2024-02-16T01:02:20;10.60;99.90
53045;DHT22;38930;52.766;6.884;2024-02-16T01:04:47;10.60;99.90
53045;DHT22;38930;52.766;6.884;2024-02-16T01:07:15;10.60;99.90
53045;DHT22;38930;52.766;6.884;2024-02-16T01:09:41;10.60;99.90
53045;DHT22;38930;52.766;6.884;2024-02-16T01:12:07;11.50;99.90
53045;DHT22;38930;52.766;6.884;2024-02-16T01:14:32;10.60;99.90
53045;DHT22;38930;52.766;6.884;2024-02-16T01:16:58;10.70;99.90
53045;DHT22;38930;52.766;6.884;2024-02-16T01:19:23;10.50;99.90
53045;DHT22;38930;52.766;6.884;2024-02-16T01:21:49;11.10;99.90
53045;DHT22;38930;52.766;6.884;2024-02-16T01:24:18;10.50;99.90
53045;DHT22;38930;52.766;6.884;2024-02-16T01:26:45;10.40;99.90
53045;DHT22;38930;52.766;6.884;2024-02-16T01:29:10;10.40;99.90
53045;DHT22;38930;52.766;6.884;2024-02-16T01:31:36;11.00;99.90
53045;DHT22;38930;52.766;6.884;2024-02-16T01:34:02;10.40;99.90
53045;DHT22;38930;52.766;6.884;2024-02-16T01:36:28;10.30;99.90
53045;DHT22;38930;52.766;6.884;2024-02-16T01:38:53;10.30;99.90
53045;DHT22;38930;52.766;6.884;2024-02-16T01:41:19;10.00;99.90
53045;DHT22;38930;52.766;6.884;2024-02-16T01:43:45;10.30;99.90
53045;DHT22;38930;52.766;6.884;2024-02-16T01:46:10;10.30;99.90
53045;DHT22;38930;52.766;6.884;2024-02-16T01:48:36;10.30;99.90
53045;DHT22;38930;52.766;6.884;2024-02-16T01:51:06;10.20;99.90
53045;DHT22;38930;52.766;6.884;2024-02-16T01:53:32;10.80;99.90
53045;DHT22;38930;52.766;6.884;2024-02-16T01:55:57;10.20;99.90
53045;DHT22;38930;52.766;6.884;2024-02-16T01:58:23;10.10;99.90
53045;DHT22;38930;52.766;6.884;2024-02-16T02:00:49;10.10;99.90
53045;DHT22;38930;52.766;6.884;2024-02-16T02:03:15;10.10;99.90
53045;DHT22;38930;52.766;6.884;2024-02-16T02:05:44;10.10;99.90
53045;DHT22;38930;52.766;6.884;2024-02-16T02:08:11;10.10;99.90
53045;DHT22;38930;52.766;6.884;2024-02-16T02:10:37;10.10;99.90
53045;DHT22;38930;52.766;6.884;2024-02-16T02:13:03;10.20;99.90
53045;DHT22;38930;52.766;6.884;2024-02-16T02:15:29;10.10;99.90
53045;DHT22;38930;52.766;6.884;2024-02-16T02:17:54;10.10;99.90
53045;DHT22;38930;52.766;6.884;2024-02-16T02:20:20;10.40;99.90
53045;DHT22;38930;52.766;6.884;2024-02-16T02:22:45;10.00;99.90
53045;DHT22;38930;52.766;6.884;2024-02-16T02:25:11;10.10;99.90
53045;DHT22;38930;52.766;6.884;2024-02-16T02:27:37;10.00;99.90
53045;DHT22;38930;52.766;6.884;2024-02-16T02:30:04;10.00;99.90
53045;DHT22;38930;52.766;6.884;2024-02-16T02:32:30;10.00;99.90
53045;DHT22;38930;52.766;6.884;2024-02-16T02:34:56;9.90;99.90
53045;DHT22;38930;52.766;6.884;2024-02-16T02:37:21;9.90;99.90
53045;DHT22;38930;52.766;6.884;2024-02-16T02:39:48;9.90;99.90
53045;DHT22;38930;52.766;6.884;2024-02-16T02:42:13;9.90;99.90
53045;DHT22;38930;52.766;6.884;2024-02-16T02:44:39;9.90;99.90
53045;DHT22;38930;52.766;6.884;2024-02-16T02:47:05;9.90;99.90
53045;DHT22;38930;52.766;6.884;2024-02-16T02:49:31;9.90;99.90
53045;DHT22;38930;52.766;6.884;2024-02-16T02:51:58;10.50;99.90
53045;DHT22;38930;52.766;6.884;2024-02-16T02:54:24;9.90;99.90
53045;DHT22;38930;52.766;6.884;2024-02-16T02:56:49;10.30;99.90
53045;DHT22;38930;52.766;6.884;2024-02-16T02:59:15;9.90;99.90
53045;DHT22;38930;52.766;6.884;2024-02-16T03:01:41;9.80;99.90
53045;DHT22;38930;52.766;6.884;2024-02-16T03:04:06;9.90;99.90
53045;DHT22;38930;52.766;6.884;2024-02-16T03:06:32;9.90;99.90
53045;DHT22;38930;52.766;6.884;2024-02-16T03:08:58;9.60;99.90
53045;DHT22;38930;52.766;6.884;2024-02-16T03:11:23;10.50;99.90
53045;DHT22;38930;52.766;6.884;2024-02-16T03:13:49;9.90;99.90
53045;DHT22;38930;52.766;6.884;2024-02-16T03:16:14;9.90;99.90
53045;DHT22;38930;52.766;6.884;2024-02-16T03:18:40;9.90;99.90
53045;DHT22;38930;52.766;6.884;2024-02-16T03:21:06;9.90;99.90
53045;DHT22;38930;52.766;6.884;2024-02-16T03:23:33;9.90;99.90
53045;DHT22;38930;52.766;6.884;2024-02-16T03:25:58;9.90;99.90
53045;DHT22;38930;52.766;6.884;2024-02-16T03:28:24;9.90;99.90
53045;DHT22;38930;52.766;6.884;2024-02-16T03:30:49;9.90;99.90
53045;DHT22;38930;52.766;6.884;2024-02-16T03:33:15;10.00;99.90
53045;DHT22;38930;52.766;6.884;2024-02-16T03:35:41;10.00;99.90
53045;DHT22;38930;52.766;6.884;2024-02-16T03:38:07;9.80;99.90
53045;DHT22;38930;52.766;6.884;2024-02-16T03:40:33;10.00;99.90
53045;DHT22;38930;52.766;6.884;2024-02-16T03:42:59;10.00;99.90
53045;DHT22;38930;52.766;6.884;2024-02-16T03:45:24;10.10;99.90
53045;DHT22;38930;52.766;6.884;2024-02-16T03:47:52;10.90;99.90
53045;DHT22;38930;52.766;6.884;2024-02-16T03:50:21;10.10;99.90
53045;DHT22;38930;52.766;6.884;2024-02-16T03:52:47;10.10;99.90
53045;DHT22;38930;52.766;6.884;2024-02-16T03:55:13;10.20;99.90
53045;DHT22;38930;52.766;6.884;2024-02-16T03:57:39;10.20;99.90
53045;DHT22;38930;52.766;6.884;2024-02-16T04:00:06;10.70;99.90
53045;DHT22;38930;52.766;6.884;2024-02-16T04:02:32;10.20;99.90
53045;DHT22;38930;52.766;6.884;2024-02-16T04:04:57;10.10;99.90
53045;DHT22;38930;52.766;6.884;2024-02-16T04:07:23;10.20;99.90
53045;DHT22;38930;52.766;6.884;2024-02-16T04:09:49;10.20;99.90
53045;DHT22;38930;52.766;6.884;2024-02-16T04:12:15;10.30;99.90
53045;DHT22;38930;52.766;6.884;2024-02-16T04:14:40;10.40;99.90
53045;DHT22;38930;52.766;6.884;2024-02-16T04:17:07;10.20;99.90
53045;DHT22;38930;52.766;6.884;2024-02-16T04:19:32;10.30;99.90
53045;DHT22;38930;52.766;6.884;2024-02-16T04:21:58;10.70;99.90
53045;DHT22;38930;52.766;6.884;2024-02-16T04:24:24;10.30;99.90
53045;DHT22;38930;52.766;6.884;2024-02-16T04:26:51;10.30;99.90
53045;DHT22;38930;52.766;6.884;2024-02-16T04:29:17;10.30;99.90
53045;DHT22;38930;52.766;6.884;2024-02-16T04:31:43;10.30;99.90
53045;DHT22;38930;52.766;6.884;2024-02-16T04:34:10;10.30;99.90
53045;DHT22;38930;52.766;6.884;2024-02-16T04:36:36;10.30;99.90
53045;DHT22;38930;52.766;6.884;2024-02-16T04:39:01;10.30;99.90
53045;DHT22;38930;52.766;6.884;2024-02-16T04:41:27;10.30;99.90
53045;DHT22;38930;52.766;6.884;2024-02-16T04:43:53;10.30;99.90
53045;DHT22;38930;52.766;6.884;2024-02-16T04:46:19;10.30;99.90
53045;DHT22;38930;52.766;6.884;2024-02-16T04:48:45;10.30;99.90
53045;DHT22;38930;52.766;6.884;2024-02-16T04:51:11;10.30;99.90
53045;DHT22;38930;52.766;6.884;2024-02-16T04:53:37;10.30;99.90
53045;DHT22;38930;52.766;6.884;2024-02-16T04:56:03;10.40;99.90
53045;DHT22;38930;52.766;6.884;2024-02-16T04:58:28;10.40;99.90
53045;DHT22;38930;52.766;6.884;2024-02-16T05:00:54;10.30;99.90
53045;DHT22;38930;52.766;6.884;2024-02-16T05:03:20;10.10;99.90
53045;DHT22;38930;52.766;6.884;2024-02-16T05:05:45;10.30;99.90
53045;DHT22;38930;52.766;6.884;2024-02-16T05:08:11;10.30;99.90
53045;DHT22;38930;52.766;6.884;2024-02-16T05:10:37;10.30;99.90
53045;DHT22;38930;52.766;6.884;2024-02-16T05:13:03;10.40;99.90
53045;DHT22;38930;52.766;6.884;2024-02-16T05:15:30;10.40;99.90
53045;DHT22;38930;52.766;6.884;2024-02-16T05:17:55;10.40;99.90
53045;DHT22;38930;52.766;6.884;2024-02-16T05:20:21;11.20;99.90
53045;DHT22;38930;52.766;6.884;2024-02-16T05:22:47;10.40;99.90
53045;DHT22;38930;52.766;6.884;2024-02-16T05:25:15;10.20;99.90
53045;DHT22;38930;52.766;6.884;2024-02-16T05:27:44;10.30;99.90
53045;DHT22;38930;52.766;6.884;2024-02-16T05:30:11;10.30;99.90
53045;DHT22;38930;52.766;6.884;2024-02-16T05:32:38;10.30;99.90
53045;DHT22;38930;52.766;6.884;2024-02-16T05:35:05;10.40;99.90
53045;DHT22;38930;52.766;6.884;2024-02-16T05:37:47;10.40;99.90
53045;DHT22;38930;52.766;6.884;2024-02-16T05:40:19;11.40;99.90
53045;DHT22;38930;52.766;6.884;2024-02-16T05:42:48;10.50;99.90
53045;DHT22;38930;52.766;6.884;2024-02-16T05:45:17;10.50;99.90
53045;DHT22;38930;52.766;6.884;2024-02-16T05:47:44;10.50;99.90
53045;DHT22;38930;52.766;6.884;2024-02-16T05:50:11;10.90;99.90
53045;DHT22;38930;52.766;6.884;2024-02-16T05:52:38;10.50;99.90
53045;DHT22;38930;52.766;6.884;2024-02-16T05:55:05;10.60;99.90
53045;DHT22;38930;52.766;6.884;2024-02-16T05:57:30;10.60;99.90
53045;DHT22;38930;52.766;6.884;2024-02-16T05:59:56;11.30;99.90
53045;DHT22;38930;52.766;6.884;2024-02-16T06:02:22;10.60;99.90
53045;DHT22;38930;52.766;6.884;2024-02-16T06:04:51;10.50;99.90
53045;DHT22;38930;52.766;6.884;2024-02-16T06:07:16;10.60;99.90
53045;DHT22;38930;52.766;6.884;2024-02-16T06:09:42;10.60;99.90
53045;DHT22;38930;52.766;6.884;2024-02-16T06:12:08;10.60;99.90
53045;DHT22;38930;52.766;6.884;2024-02-16T06:14:35;10.60;99.90
53045;DHT22;38930;52.766;6.884;2024-02-16T06:17:02;10.90;99.90
53045;DHT22;38930;52.766;6.884;2024-02-16T06:19:28;10.70;99.90
53045;DHT22;38930;52.766;6.884;2024-02-16T06:21:54;11.20;99.90
53045;DHT22;38930;52.766;6.884;2024-02-16T06:24:23;10.80;99.90
53045;DHT22;38930;52.766;6.884;2024-02-16T06:26:50;10.80;99.90
53045;DHT22;38930;52.766;6.884;2024-02-16T06:29:17;11.50;99.90
53045;DHT22;38930;52.766;6.884;2024-02-16T06:31:48;11.00;99.90
53045;DHT22;38930;52.766;6.884;2024-02-16T06:34:14;11.00;99.90
53045;DHT22;38930;52.766;6.884;2024-02-16T06:36:40;11.00;99.90
53045;DHT22;38930;52.766;6.884;2024-02-16T06:39:06;11.00;99.90
53045;DHT22;38930;52.766;6.884;2024-02-16T06:41:32;11.00;99.90
53045;DHT22;38930;52.766;6.884;2024-02-16T06:43:58;10.90;99.90
53045;DHT22;38930;52.766;6.884;2024-02-16T06:46:23;11.00;99.90
53045;DHT22;38930;52.766;6.884;2024-02-16T06:48:50;11.00;99.90
53045;DHT22;38930;52.766;6.884;2024-02-16T06:51:17;10.90;99.90
53045;DHT22;38930;52.766;6.884;2024-02-16T06:53:43;10.90;99.90
53045;DHT22;38930;52.766;6.884;2024-02-16T06:56:09;10.90;99.90
53045;DHT22;38930;52.766;6.884;2024-02-16T06:58:35;10.90;99.90
53045;DHT22;38930;52.766;6.884;2024-02-16T07:01:02;10.90;99.90
53045;DHT22;38930;52.766;6.884;2024-02-16T07:03:29;10.90;99.90
53045;DHT22;38930;52.766;6.884;2024-02-16T07:05:54;10.90;99.90
53045;DHT22;38930;52.766;6.884;2024-02-16T07:08:20;10.90;99.90
53045;DHT22;38930;52.766;6.884;2024-02-16T07:10:49;10.90;99.90
53045;DHT22;38930;52.766;6.884;2024-02-16T07:13:17;11.00;99.90
53045;DHT22;38930;52.766;6.884;2024-02-16T07:15:42;10.90;99.90
53045;DHT22;38930;52.766;6.884;2024-02-16T07:18:08;11.10;99.90
53045;DHT22;38930;52.766;6.884;2024-02-16T07:20:35;11.00;99.90
53045;DHT22;38930;52.766;6.884;2024-02-16T07:23:02;11.10;99.90
53045;DHT22;38930;52.766;6.884;2024-02-16T07:25:27;11.10;99.90
53045;DHT22;38930;52.766;6.884;2024-02-16T07:27:53;11.10;99.90
53045;DHT22;38930;52.766;6.884;2024-02-16T07:30:19;11.10;99.90
53045;DHT22;38930;52.766;6.884;2024-02-16T07:32:49;11.10;99.90
53045;DHT22;38930;52.766;6.884;2024-02-16T07:35:15;11.20;99.90
53045;DHT22;38930;52.766;6.884;2024-02-16T07:37:42;11.30;99.90
53045;DHT22;38930;52.766;6.884;2024-02-16T07:40:09;11.30;99.90
53045;DHT22;38930;52.766;6.884;2024-02-16T07:42:38;11.30;99.90
53045;DHT22;38930;52.766;6.884;2024-02-16T07:45:05;11.40;99.90
53045;DHT22;38930;52.766;6.884;2024-02-16T07:47:31;11.40;99.90
53045;DHT22;38930;52.766;6.884;2024-02-16T07:49:57;11.50;99.90
53045;DHT22;38930;52.766;6.884;2024-02-16T07:52:23;12.00;99.90
53045;DHT22;38930;52.766;6.884;2024-02-16T07:54:48;11.80;99.90
53045;DHT22;38930;52.766;6.884;2024-02-16T07:57:17;11.40;99.90
53045;DHT22;38930;52.766;6.884;2024-02-16T07:59:43;11.50;99.90
53045;DHT22;38930;52.766;6.884;2024-02-16T08:02:09;11.50;99.90
53045;DHT22;38930;52.766;6.884;2024-02-16T08:04:35;11.50;99.90
53045;DHT22;38930;52.766;6.884;2024-02-16T08:07:01;11.50;99.90
53045;DHT22;38930;52.766;6.884;2024-02-16T08:09:27;11.60;99.90
53045;DHT22;38930;52.766;6.884;2024-02-16T08:11:52;11.60;99.90
53045;DHT22;38930;52.766;6.884;2024-02-16T08:14:18;11.40;99.90
53045;DHT22;38930;52.766;6.884;2024-02-16T08:16:44;11.60;99.90
53045;DHT22;38930;52.766;6.884;2024-02-16T08:19:09;11.60;99.90
53045;DHT22;38930;52.766;6.884;2024-02-16T08:21:35;11.60;99.90
53045;DHT22;38930;52.766;6.884;2024-02-16T08:24:00;11.60;99.90
53045;DHT22;38930;52.766;6.884;2024-02-16T08:26:26;11.50;99.90
53045;DHT22;38930;52.766;6.884;2024-02-16T08:28:52;11.70;99.90
53045;DHT22;38930;52.766;6.884;2024-02-16T08:31:18;11.80;99.90
53045;DHT22;38930;52.766;6.884;2024-02-16T08:33:45;11.70;99.90
53045;DHT22;38930;52.766;6.884;2024-02-16T08:36:12;11.70;99.90
53045;DHT22;38930;52.766;6.884;2024-02-16T08:38:37;12.00;99.90
53045;DHT22;38930;52.766;6.884;2024-02-16T08:41:03;11.70;99.90
53045;DHT22;38930;52.766;6.884;2024-02-16T08:43:29;11.70;99.90
53045;DHT22;38930;52.766;6.884;2024-02-16T08:45:55;11.80;99.90
53045;DHT22;38930;52.766;6.884;2024-02-16T08:48:21;11.80;99.90
53045;DHT22;38930;52.766;6.884;2024-02-16T08:50:47;11.90;99.90
53045;DHT22;38930;52.766;6.884;2024-02-16T08:53:13;11.90;99.90
53045;DHT22;38930;52.766;6.884;2024-02-16T08:55:39;12.00;99.90
53045;DHT22;38930;52.766;6.884;2024-02-16T08:58:07;11.90;99.90
53045;DHT22;38930;52.766;6.884;2024-02-16T09:00:34;11.90;99.90
53045;DHT22;38930;52.766;6.884;2024-02-16T09:03:00;12.00;99.90
53045;DHT22;38930;52.766;6.884;2024-02-16T09:05:28;12.00;99.90
53045;DHT22;38930;52.766;6.884;2024-02-16T09:07:53;12.00;99.90
53045;DHT22;38930;52.766;6.884;2024-02-16T09:10:19;12.00;99.90
53045;DHT22;38930;52.766;6.884;2024-02-16T09:12:45;12.00;99.90
53045;DHT22;38930;52.766;6.884;2024-02-16T09:15:11;12.00;99.90
53045;DHT22;38930;52.766;6.884;2024-02-16T09:17:37;12.00;99.90
53045;DHT22;38930;52.766;6.884;2024-02-16T09:20:03;12.10;99.90
53045;DHT22;38930;52.766;6.884;2024-02-16T09:22:30;12.10;99.90
53045;DHT22;38930;52.766;6.884;2024-02-16T09:24:55;12.10;99.90
53045;DHT22;38930;52.766;6.884;2024-02-16T09:27:25;12.20;99.90
53045;DHT22;38930;52.766;6.884;2024-02-16T09:29:51;12.20;99.90
53045;DHT22;38930;52.766;6.884;2024-02-16T09:32:16;12.20;99.90
53045;DHT22;38930;52.766;6.884;2024-02-16T09:34:42;12.30;99.90
53045;DHT22;38930;52.766;6.884;2024-02-16T09:37:07;12.30;99.90
53045;DHT22;38930;52.766;6.884;2024-02-16T09:39:34;12.40;99.90
53045;DHT22;38930;52.766;6.884;2024-02-16T09:42:00;12.40;99.90
53045;DHT22;38930;52.766;6.884;2024-02-16T09:44:26;12.50;99.90
53045;DHT22;38930;52.766;6.884;2024-02-16T09:46:54;12.60;99.90
53045;DHT22;38930;52.766;6.884;2024-02-16T09:49:20;12.60;99.90
53045;DHT22;38930;52.766;6.884;2024-02-16T09:51:46;12.80;99.90
53045;DHT22;38930;52.766;6.884;2024-02-16T09:54:11;12.70;99.90
53045;DHT22;38930;52.766;6.884;2024-02-16T09:56:37;12.80;99.90
53045;DHT22;38930;52.766;6.884;2024-02-16T09:59:03;12.80;99.90
53045;DHT22;38930;52.766;6.884;2024-02-16T10:01:28;12.80;99.90
53045;DHT22;38930;52.766;6.884;2024-02-16T10:04:06;12.90;99.90
53045;DHT22;38930;52.766;6.884;2024-02-16T10:06:48;12.90;99.90
53045;DHT22;38930;52.766;6.884;2024-02-16T10:09:24;13.00;99.90
53045;DHT22;38930;52.766;6.884;2024-02-16T10:11:50;13.00;99.90
53045;DHT22;38930;52.766;6.884;2024-02-16T10:14:16;13.00;99.90
53045;DHT22;38930;52.766;6.884;2024-02-16T10:16:42;13.00;99.90
53045;DHT22;38930;52.766;6.884;2024-02-16T10:19:08;13.10;99.90
53045;DHT22;38930;52.766;6.884;2024-02-16T10:21:36;13.10;99.90
53045;DHT22;38930;52.766;6.884;2024-02-16T10:24:09;13.10;99.90
53045;DHT22;38930;52.766;6.884;2024-02-16T10:26:38;13.20;99.90
53045;DHT22;38930;52.766;6.884;2024-02-16T10:29:17;13.10;99.90
53045;DHT22;38930;52.766;6.884;2024-02-16T10:31:45;13.20;99.90
53045;DHT22;38930;52.766;6.884;2024-02-16T10:34:11;13.30;99.90
53045;DHT22;38930;52.766;6.884;2024-02-16T10:36:38;13.30;99.90
53045;DHT22;38930;52.766;6.884;2024-02-16T10:39:06;13.30;99.90
53045;DHT22;38930;52.766;6.884;2024-02-16T10:41:37;13.30;99.90
53045;DHT22;38930;52.766;6.884;2024-02-16T10:44:04;13.40;99.90
53045;DHT22;38930;52.766;6.884;2024-02-16T10:46:30;13.50;99.90
53045;DHT22;38930;52.766;6.884;2024-02-16T10:48:56;13.60;99.90
53045;DHT22;38930;52.766;6.884;2024-02-16T10:51:31;13.70;99.90
53045;DHT22;38930;52.766;6.884;2024-02-16T10:54:00;13.70;99.90
53045;DHT22;38930;52.766;6.884;2024-02-16T10:56:36;13.80;99.90
53045;DHT22;38930;52.766;6.884;2024-02-16T10:59:07;14.00;99.90
53045;DHT22;38930;52.766;6.884;2024-02-16T11:01:37;13.80;99.90
53045;DHT22;38930;52.766;6.884;2024-02-16T11:04:04;13.80;99.90
53045;DHT22;38930;52.766;6.884;2024-02-16T11:06:48;13.80;99.90
53045;DHT22;38930;52.766;6.884;2024-02-16T11:09:43;13.70;99.90
53045;DHT22;38930;52.766;6.884;2024-02-16T11:12:14;13.70;99.90
53045;DHT22;38930;52.766;6.884;2024-02-16T11:14:47;13.60;99.90
53045;DHT22;38930;52.766;6.884;2024-02-16T11:17:20;13.50;99.90
53045;DHT22;38930;52.766;6.884;2024-02-16T11:19:46;13.40;99.90
53045;DHT22;38930;52.766;6.884;2024-02-16T11:22:17;13.40;99.90
53045;DHT22;38930;52.766;6.884;2024-02-16T11:24:48;13.30;99.90
53045;DHT22;38930;52.766;6.884;2024-02-16T11:27:14;14.10;99.90
53045;DHT22;38930;52.766;6.884;2024-02-16T11:29:45;13.30;99.90
53045;DHT22;38930;52.766;6.884;2024-02-16T11:32:10;13.20;99.90
53045;DHT22;38930;52.766;6.884;2024-02-16T11:34:36;13.20;99.90
53045;DHT22;38930;52.766;6.884;2024-02-16T11:37:03;13.10;99.90
53045;DHT22;38930;52.766;6.884;2024-02-16T11:39:30;13.10;99.90
53045;DHT22;38930;52.766;6.884;2024-02-16T11:42:04;13.10;99.90
53045;DHT22;38930;52.766;6.884;2024-02-16T11:44:31;13.10;99.90
53045;DHT22;38930;52.766;6.884;2024-02-16T11:46:58;13.00;99.90
53045;DHT22;38930;52.766;6.884;2024-02-16T11:49:24;13.00;99.90
53045;DHT22;38930;52.766;6.884;2024-02-16T11:51:50;12.90;99.90
53045;DHT22;38930;52.766;6.884;2024-02-16T11:54:16;12.90;99.90
53045;DHT22;38930;52.766;6.884;2024-02-16T11:56:45;12.90;99.90
53045;DHT22;38930;52.766;6.884;2024-02-16T11:59:15;12.90;99.90
53045;DHT22;38930;52.766;6.884;2024-02-16T12:01:53;12.80;99.90
53045;DHT22;38930;52.766;6.884;2024-02-16T12:06:57;12.80;99.90
53045;DHT22;38930;52.766;6.884;2024-02-16T12:09:23;12.70;99.90
53045;DHT22;38930;52.766;6.884;2024-02-16T12:11:49;12.70;99.90
53045;DHT22;38930;52.766;6.884;2024-02-16T12:14:20;12.60;99.90
53045;DHT22;38930;52.766;6.884;2024-02-16T12:16:47;12.60;99.90
53045;DHT22;38930;52.766;6.884;2024-02-16T12:19:13;12.60;99.90
53045;DHT22;38930;52.766;6.884;2024-02-16T12:21:39;12.60;99.90
53045;DHT22;38930;52.766;6.884;2024-02-16T12:24:05;12.50;99.90
53045;DHT22;38930;52.766;6.884;2024-02-16T12:26:31;12.40;99.90
53045;DHT22;38930;52.766;6.884;2024-02-16T12:28:57;12.40;99.90
53045;DHT22;38930;52.766;6.884;2024-02-16T12:31:23;12.40;99.90
53045;DHT22;38930;52.766;6.884;2024-02-16T12:33:49;12.40;99.90
53045;DHT22;38930;52.766;6.884;2024-02-16T12:36:14;12.30;99.90
53045;DHT22;38930;52.766;6.884;2024-02-16T12:38:40;12.40;99.90
53045;DHT22;38930;52.766;6.884;2024-02-16T12:41:06;12.20;99.90
53045;DHT22;38930;52.766;6.884;2024-02-16T12:43:32;12.20;99.90
53045;DHT22;38930;52.766;6.884;2024-02-16T12:45:57;12.10;99.90
53045;DHT22;38930;52.766;6.884;2024-02-16T12:48:27;12.20;99.90
53045;DHT22;38930;52.766;6.884;2024-02-16T12:50:53;12.20;99.90
53045;DHT22;38930;52.766;6.884;2024-02-16T12:53:19;12.20;99.90
53045;DHT22;38930;52.766;6.884;2024-02-16T12:55:46;12.30;99.90
53045;DHT22;38930;52.766;6.884;2024-02-16T12:58:13;12.20;99.90
53045;DHT22;38930;52.766;6.884;2024-02-16T13:00:38;12.30;99.90
53045;DHT22;38930;52.766;6.884;2024-02-16T13:03:04;12.20;99.90
53045;DHT22;38930;52.766;6.884;2024-02-16T13:05:30;12.20;99.90
53045;DHT22;38930;52.766;6.884;2024-02-16T13:07:58;12.20;99.90
53045;DHT22;38930;52.766;6.884;2024-02-16T13:10:24;12.20;99.90
53045;DHT22;38930;52.766;6.884;2024-02-16T13:12:49;12.30;99.90
53045;DHT22;38930;52.766;6.884;2024-02-16T13:15:15;12.20;99.90
53045;DHT22;38930;52.766;6.884;2024-02-16T13:17:40;12.20;99.90
53045;DHT22;38930;52.766;6.884;2024-02-16T13:20:07;12.20;99.90
53045;DHT22;38930;52.766;6.884;2024-02-16T13:22:35;12.20;99.90
53045;DHT22;38930;52.766;6.884;2024-02-16T13:25:03;12.10;99.90
53045;DHT22;38930;52.766;6.884;2024-02-16T13:27:29;12.10;99.90
53045;DHT22;38930;52.766;6.884;2024-02-16T13:29:54;12.10;99.90
53045;DHT22;38930;52.766;6.884;2024-02-16T13:32:20;12.00;99.90
53045;DHT22;38930;52.766;6.884;2024-02-16T13:34:46;12.00;99.90
53045;DHT22;38930;52.766;6.884;2024-02-16T13:37:11;12.00;99.90
53045;DHT22;38930;52.766;6.884;2024-02-16T13:39:37;12.00;99.90
53045;DHT22;38930;52.766;6.884;2024-02-16T13:42:02;11.90;99.90
53045;DHT22;38930;52.766;6.884;2024-02-16T13:44:28;11.90;99.90
53045;DHT22;38930;52.766;6.884;2024-02-16T13:46:54;11.80;99.90
53045;DHT22;38930;52.766;6.884;2024-02-16T13:49:20;11.90;99.90
53045;DHT22;38930;52.766;6.884;2024-02-16T13:51:46;11.90;99.90
53045;DHT22;38930;52.766;6.884;2024-02-16T13:54:11;11.80;99.90
53045;DHT22;38930;52.766;6.884;2024-02-16T13:56:37;12.50;99.90
53045;DHT22;38930;52.766;6.884;2024-02-16T13:59:04;11.80;99.90
53045;DHT22;38930;52.766;6.884;2024-02-16T14:01:30;11.90;99.90
53045;DHT22;38930;52.766;6.884;2024-02-16T14:03:56;11.90;99.90
53045;DHT22;38930;52.766;6.884;2024-02-16T14:06:22;11.90;99.90
53045;DHT22;38930;52.766;6.884;2024-02-16T14:08:47;11.90;99.90
53045;DHT22;38930;52.766;6.884;2024-02-16T14:11:18;11.90;99.90
53045;DHT22;38930;52.766;6.884;2024-02-16T14:13:44;11.90;99.90
53045;DHT22;38930;52.766;6.884;2024-02-16T14:16:09;11.80;99.90
53045;DHT22;38930;52.766;6.884;2024-02-16T14:18:36;11.80;99.90
53045;DHT22;38930;52.766;6.884;2024-02-16T14:21:02;11.80;99.90
53045;DHT22;38930;52.766;6.884;2024-02-16T14:23:30;11.80;99.90
53045;DHT22;38930;52.766;6.884;2024-02-16T14:25:55;11.90;99.90
53045;DHT22;38930;52.766;6.884;2024-02-16T14:28:21;11.70;99.90
53045;DHT22;38930;52.766;6.884;2024-02-16T14:30:47;12.50;99.90
53045;DHT22;38930;52.766;6.884;2024-02-16T14:33:12;11.70;99.90
53045;DHT22;38930;52.766;6.884;2024-02-16T14:35:38;11.70;99.90
53045;DHT22;38930;52.766;6.884;2024-02-16T14:38:04;12.20;99.90
53045;DHT22;38930;52.766;6.884;2024-02-16T14:40:32;11.80;99.90
53045;DHT22;38930;52.766;6.884;2024-02-16T14:42:58;11.80;99.90
53045;DHT22;38930;52.766;6.884;2024-02-16T14:45:24;11.80;99.90
53045;DHT22;38930;52.766;6.884;2024-02-16T14:47:50;11.70;99.90
53045;DHT22;38930;52.766;6.884;2024-02-16T14:50:16;11.80;99.90
53045;DHT22;38930;52.766;6.884;2024-02-16T14:52:42;11.80;99.90
53045;DHT22;38930;52.766;6.884;2024-02-16T14:55:11;11.80;99.90
53045;DHT22;38930;52.766;6.884;2024-02-16T14:57:39;12.00;99.90
53045;DHT22;38930;52.766;6.884;2024-02-16T15:00:09;11.70;99.90
53045;DHT22;38930;52.766;6.884;2024-02-16T15:02:34;11.70;99.90
53045;DHT22;38930;52.766;6.884;2024-02-16T15:05:02;11.70;99.90
53045;DHT22;38930;52.766;6.884;2024-02-16T15:07:30;11.70;99.90
53045;DHT22;38930;52.766;6.884;2024-02-16T15:09:56;11.70;99.90
53045;DHT22;38930;52.766;6.884;2024-02-16T15:12:22;11.70;99.90
53045;DHT22;38930;52.766;6.884;2024-02-16T15:14:49;11.80;99.90
53045;DHT22;38930;52.766;6.884;2024-02-16T15:17:15;11.70;99.90
53045;DHT22;38930;52.766;6.884;2024-02-16T15:19:41;11.80;99.90
53045;DHT22;38930;52.766;6.884;2024-02-16T15:22:07;11.80;99.90
53045;DHT22;38930;52.766;6.884;2024-02-16T15:24:33;11.70;99.90
53045;DHT22;38930;52.766;6.884;2024-02-16T15:26:59;11.80;99.90
53045;DHT22;38930;52.766;6.884;2024-02-16T15:29:27;11.80;99.90
53045;DHT22;38930;52.766;6.884;2024-02-16T15:31:52;12.20;99.90